createdAt,value
2019-01-12T01:01:56.152Z,95790.86
2019-01-12T01:06:59.485Z,95801.06
2019-01-12T01:12:02.818Z,95807.73
2019-01-12T01:17:06.912Z,95818.61
2019-01-12T01:22:10.255Z,95816.63
2019-01-12T01:27:14.356Z,95829.78
2019-01-12T10:00:41.495Z,95786.52
2019-01-12T10:05:57.196Z,95804.16
2019-01-12T10:11:04.560Z,95773.11
2019-01-12T10:16:54.852Z,95768.37
2019-01-12T10:21:58.957Z,95770.77
2019-01-12T10:31:44.773Z,95770.44
2019-01-12T10:38:36.665Z,95758.86
2019-01-12T10:57:05.657Z,95741.18
2019-01-12T11:02:03.641Z,95739.11
2019-01-12T11:07:09.326Z,95726.97
2019-01-12T11:12:12.494Z,95726.24
2019-01-12T11:17:13.814Z,95723.84
2019-01-12T11:22:15.156Z,95714.38
2019-01-12T11:27:18.852Z,95708.22
2019-01-12T11:32:20.184Z,95713.50
2019-01-12T11:37:22.700Z,95703.98
2019-01-12T11:42:25.017Z,95687.94
2019-01-12T11:47:26.317Z,95680.61
2019-01-12T11:52:35.620Z,95689.52
2019-01-12T11:57:36.910Z,95658.70
2019-01-12T12:02:44.807Z,95650.36
2019-01-12T12:07:54.594Z,95649.39
2019-01-12T12:12:55.917Z,95634.65
2019-01-12T12:18:06.323Z,95631.60
2019-01-12T12:23:07.693Z,95593.58
2019-01-12T12:28:09.734Z,95599.39
2019-01-12T12:33:11.088Z,95589.23
2019-01-12T12:38:12.559Z,95579.49
2019-01-12T12:43:14.006Z,95594.16
2019-01-12T12:48:17.386Z,95578.78
2019-01-12T12:53:21.448Z,95582.88
2019-01-12T12:58:22.878Z,95580.17
2019-01-12T13:03:25.919Z,95575.66
2019-01-12T13:08:27.398Z,95552.42
2019-01-12T13:13:28.718Z,95549.86
2019-01-12T13:18:30.040Z,95537.67
2019-01-12T13:23:31.384Z,95533.27
2019-01-12T13:28:32.665Z,95508.84
2019-01-12T13:33:33.979Z,95511.65
2019-01-12T13:38:35.308Z,95499.47
2019-01-12T13:43:36.628Z,95500.98
2019-01-12T13:48:37.980Z,95503.27
2019-01-12T13:53:39.464Z,95516.09
2019-01-12T13:58:40.805Z,95521.64
2019-01-12T14:03:42.196Z,95531.89
2019-01-12T14:08:43.732Z,95534.30
2019-01-12T14:13:45.118Z,95552.96
2019-01-12T14:18:46.489Z,95535.91
2019-01-12T14:23:47.882Z,95546.58
2019-01-12T14:28:50.335Z,95531.66
2019-01-12T14:33:58.960Z,95535.80
2019-01-12T14:39:00.341Z,95520.54
2019-01-12T14:44:04.049Z,95507.80
2019-01-12T14:49:05.126Z,95519.15
2019-01-12T14:54:06.566Z,95519.67
2019-01-12T14:59:10.003Z,95503.05
2019-01-12T15:04:11.311Z,95507.64
2019-01-12T15:09:12.724Z,95491.18
2019-01-12T15:14:14.132Z,95477.02
2019-01-12T15:19:16.308Z,95471.83
2019-01-12T15:24:17.890Z,95457.70
2019-01-12T15:29:23.656Z,95454.06
2019-01-12T15:34:24.994Z,95434.31
2019-01-12T15:39:26.353Z,95427.22
2019-01-12T15:44:27.775Z,95427.05
2019-01-12T15:49:29.836Z,95419.04
2019-01-12T15:54:41.946Z,95385.80
2019-01-12T15:59:44.149Z,95392.70
2019-01-12T16:04:50.216Z,95375.18
2019-01-12T16:09:51.549Z,95394.80
2019-01-12T16:14:56.676Z,95368.80
2019-01-12T16:19:57.963Z,95353.17
2019-01-12T16:24:59.292Z,95334.30
2019-01-12T16:30:00.680Z,95325.00
2019-01-12T16:35:01.996Z,95317.06
2019-01-12T16:40:04.057Z,95295.56
2019-01-12T16:45:05.359Z,95289.21
2019-01-12T16:50:07.513Z,95323.81
2019-01-12T16:55:19.771Z,95307.83
2019-01-12T17:00:22.956Z,95308.17
2019-01-12T17:05:25.036Z,95315.63
2019-01-12T17:10:26.393Z,95313.48
2019-01-12T17:15:34.397Z,95288.56
2019-01-12T17:20:29.051Z,95308.30
2019-01-12T17:25:30.435Z,95304.59
2019-01-12T17:30:31.889Z,95296.03
2019-01-12T17:35:40.218Z,95288.21
2019-01-12T17:40:41.602Z,95283.28
2019-01-12T17:45:42.939Z,95261.77
2019-01-12T17:50:44.241Z,95279.78
2019-01-12T17:55:45.568Z,95261.17
2019-01-12T18:00:52.456Z,95294.24
2019-01-12T18:05:53.881Z,95240.02
2019-01-12T18:10:55.222Z,95261.42
2019-01-12T18:15:56.534Z,95248.81
2019-01-12T18:20:58.671Z,95236.42
2019-01-12T18:26:00.048Z,95268.97
2019-01-12T18:31:02.054Z,95301.47
2019-01-12T18:36:04.304Z,95266.36
2019-01-12T18:41:06.469Z,95259.98
2019-01-12T18:46:12.250Z,95248.55
2019-01-12T18:51:11.779Z,95220.23
2019-01-12T18:56:13.818Z,95209.91
2019-01-12T19:01:15.829Z,95201.88
2019-01-12T19:06:18.812Z,95190.67
2019-01-12T19:11:20.688Z,95219.23
2019-01-12T19:16:23.259Z,95178.92
2019-01-12T19:21:25.276Z,95267.80
2019-01-12T19:26:27.425Z,95176.78
2019-01-12T19:31:29.466Z,95162.83
2019-01-12T19:36:32.241Z,95137.22
2019-01-12T19:41:34.719Z,95136.26
2019-01-12T19:46:37.427Z,95122.47
2019-01-12T19:51:40.237Z,95127.64
2019-01-12T19:56:42.231Z,95136.02
2019-01-12T20:01:45.192Z,95132.44
2019-01-12T20:06:46.601Z,95137.27
2019-01-12T20:11:48.291Z,95106.31
2019-01-12T20:16:49.745Z,95110.98
2019-01-12T20:21:52.033Z,95092.98
2019-01-12T20:26:53.925Z,95115.45
2019-01-12T20:32:04.910Z,95092.11
2019-01-12T20:37:16.888Z,95101.00
2019-01-12T20:48:23.400Z,95066.10
2019-01-12T20:53:28.731Z,95065.19
2019-01-12T20:58:47.620Z,95061.84
2019-01-12T21:03:57.854Z,95046.63
2019-01-12T21:09:20.105Z,95040.02
2019-01-12T21:14:37.180Z,95021.14
2019-01-12T21:19:38.481Z,95039.25
2019-01-12T21:24:39.925Z,95029.91
2019-01-12T21:29:41.223Z,95022.92
2019-01-12T21:34:42.964Z,95035.77
2019-01-12T21:39:44.307Z,94998.83
2019-01-12T21:44:45.652Z,94990.79
2019-01-12T21:49:47.020Z,95006.19
2019-01-12T21:54:49.121Z,95058.23
2019-01-12T21:59:50.515Z,95007.68
2019-01-12T22:04:51.896Z,95032.22
2019-01-12T22:09:53.202Z,95001.11
2019-01-12T22:14:54.648Z,94981.22
2019-01-12T22:19:55.963Z,94978.72
2019-01-12T22:24:57.401Z,94993.77
2019-01-12T22:29:58.766Z,94969.41
2019-01-12T22:35:00.236Z,94950.54
2019-01-12T22:40:01.473Z,94941.70
2019-01-12T22:45:02.864Z,94961.22
2019-01-12T22:50:05.906Z,94935.38
2019-01-12T22:55:07.214Z,94939.80
2019-01-12T23:31:13.287Z,94933.75
2019-01-12T23:36:14.691Z,94904.85
2019-01-12T23:41:16.728Z,94875.84
2019-01-12T23:46:18.062Z,94882.77
2019-01-12T23:51:19.501Z,94878.89
2019-01-12T23:56:20.951Z,94857.17
